Time;durP1;ratioP1;P1;durP2;ratioP2;P2;SDS_P1;SDS_P2;PMS_P1;PMS_P2;Temp;Humidity;BMP_temperature;BMP_pressure;BME280_temperature;BME280_humidity;BME280_pressure;Samples;Min_cycle;Max_cycle;Signal;HPM_P1;HPM_P2
2022/06/03 00:02:00;;;;;;;6.38;4.40;;;10.80;99.90;;;;;;4971951;28;20484;-59
2022/06/03 00:04:29;;;;;;;7.07;4.10;;;10.80;99.90;;;;;;5037884;28;20048;-59
2022/06/03 00:07:17;;;;;;;9.00;4.93;;;10.70;99.90;;;;;;5069500;28;20365;-59
2022/06/03 00:10:23;;;;;;;8.23;4.20;;;10.70;99.90;;;;;;5058579;28;20123;-59
2022/06/03 00:12:52;;;;;;;6.32;4.70;;;10.70;99.90;;;;;;5074093;28;20581;-59
2022/06/03 00:15:49;;;;;;;8.15;4.60;;;10.70;99.90;;;;;;5060049;28;20053;-59
2022/06/03 00:18:30;;;;;;;8.63;4.90;;;10.70;99.90;;;;;;5051617;28;20052;-59
2022/06/03 00:21:05;;;;;;;7.30;4.55;;;10.70;99.90;;;;;;5063864;28;20049;-58
2022/06/03 00:23:49;;;;;;;7.15;4.70;;;10.60;99.90;;;;;;5062150;28;20114;-58
2022/06/03 00:26:40;;;;;;;7.82;4.45;;;10.60;99.90;;;;;;5056451;28;20040;-58
2022/06/03 00:29:11;;;;;;;7.78;5.78;;;10.60;99.90;;;;;;5078836;28;20044;-58
2022/06/03 00:32:14;;;;;;;7.50;4.80;;;10.60;99.90;;;;;;5043483;28;20056;-58
2022/06/03 00:35:01;;;;;;;7.22;5.50;;;10.60;99.90;;;;;;5059704;28;20040;-58
2022/06/03 00:37:53;;;;;;;7.85;5.00;;;10.50;99.90;;;;;;5044983;28;20044;-59
2022/06/03 00:40:19;;;;;;;6.43;5.07;;;10.60;99.90;;;;;;5065533;28;20106;-60
2022/06/03 00:43:06;;;;;;;7.05;5.45;;;10.50;99.90;;;;;;5071954;28;20049;-59
2022/06/03 00:45:44;;;;;;;7.63;5.90;;;10.50;99.90;;;;;;5062679;28;20048;-59
2022/06/03 00:48:34;;;;;;;7.13;5.45;;;10.40;99.90;;;;;;5061704;28;20410;-59
2022/06/03 00:51:19;;;;;;;7.03;5.38;;;10.50;99.90;;;;;;5065172;28;20052;-59
2022/06/03 00:53:48;;;;;;;7.65;5.68;;;10.40;99.90;;;;;;5077440;28;20045;-59
2022/06/03 00:56:52;;;;;;;7.80;5.63;;;10.40;99.90;;;;;;5057603;28;20676;-59
2022/06/03 00:59:27;;;;;;;11.98;6.18;;;10.30;99.90;;;;;;5059116;28;20064;-59
2022/06/03 01:02:13;;;;;;;8.93;5.32;;;10.30;99.90;;;;;;5068550;28;20048;-58
2022/06/03 01:04:51;;;;;;;6.65;5.50;;;10.30;99.90;;;;;;5074349;28;20159;-58
2022/06/03 01:07:28;;;;;;;8.60;5.88;;;10.20;99.90;;;;;;5060936;28;20040;-58
2022/06/03 01:10:29;;;;;;;8.27;6.07;;;10.30;99.90;;;;;;5074848;28;20063;-58
2022/06/03 01:13:12;;;;;;;9.63;6.47;;;10.30;99.90;;;;;;5063904;28;20076;-58
2022/06/03 01:16:06;;;;;;;7.45;6.28;;;10.20;99.90;;;;;;5060841;28;20045;-58
2022/06/03 01:18:38;;;;;;;8.90;6.38;;;10.20;99.90;;;;;;5036186;28;20055;-58
2022/06/03 01:21:21;;;;;;;7.80;6.15;;;10.10;99.90;;;;;;5067916;28;20045;-58
2022/06/03 01:23:52;;;;;;;9.00;6.25;;;10.10;99.90;;;;;;5063079;28;20048;-58
2022/06/03 01:26:27;;;;;;;9.02;6.55;;;10.10;99.90;;;;;;5062220;28;20433;-59
2022/06/03 01:29:12;;;;;;;9.63;6.20;;;10.10;99.90;;;;;;5058596;28;20044;-58
2022/06/03 01:31:57;;;;;;;10.10;6.63;;;10.10;99.90;;;;;;5068882;28;20048;-58
2022/06/03 01:34:25;;;;;;;9.43;6.30;;;10.00;99.90;;;;;;5075494;28;20052;-58
2022/06/03 01:37:19;;;;;;;9.57;6.70;;;10.00;99.90;;;;;;5058241;28;20575;-60
2022/06/03 01:40:15;;;;;;;10.73;7.05;;;9.90;99.90;;;;;;5059560;28;20095;-59
2022/06/03 01:43:09;;;;;;;8.63;6.28;;;10.00;99.90;;;;;;5017799;28;20045;-58
2022/06/03 01:45:58;;;;;;;7.43;6.18;;;10.00;99.90;;;;;;5058483;28;20171;-58
2022/06/03 01:48:45;;;;;;;9.23;6.80;;;9.90;99.90;;;;;;5068864;28;20049;-59
2022/06/03 01:51:35;;;;;;;7.40;6.35;;;9.90;99.90;;;;;;5063937;28;20811;-60
2022/06/03 01:54:29;;;;;;;8.40;6.07;;;9.90;99.90;;;;;;5067885;28;20590;-58
2022/06/03 01:57:16;;;;;;;9.00;6.35;;;9.80;99.90;;;;;;5065796;28;20099;-57
2022/06/03 01:59:57;;;;;;;7.63;6.55;;;9.80;99.90;;;;;;5054032;28;20495;-58
2022/06/03 02:02:42;;;;;;;8.20;7.20;;;9.80;99.90;;;;;;5056495;28;20476;-58
2022/06/03 02:05:35;;;;;;;9.45;6.90;;;9.70;99.90;;;;;;5026771;28;20049;-59
2022/06/03 02:08:25;;;;;;;9.80;6.82;;;9.70;99.90;;;;;;5065983;28;20060;-58
2022/06/03 02:11:00;;;;;;;9.52;6.97;;;9.70;99.90;;;;;;5061406;28;20127;-58
2022/06/03 02:13:35;;;;;;;8.90;7.80;;;9.70;99.90;;;;;;5062395;28;20149;-59
2022/06/03 02:16:26;;;;;;;11.95;7.22;;;9.70;99.90;;;;;;5063046;28;20133;-58
2022/06/03 02:19:13;;;;;;;9.98;7.78;;;9.70;99.90;;;;;;5022699;28;20554;-58
2022/06/03 02:21:57;;;;;;;10.02;7.45;;;9.70;99.90;;;;;;5061713;28;20087;-58
2022/06/03 02:24:40;;;;;;;9.95;7.85;;;9.70;99.90;;;;;;5078129;28;20044;-58
2022/06/03 02:27:06;;;;;;;10.88;7.90;;;9.60;99.90;;;;;;5069140;28;20040;-57
2022/06/03 02:32:57;;;;;;;9.23;7.88;;;9.60;99.90;;;;;;5069141;28;20044;-57
2022/06/03 02:35:47;;;;;;;10.23;7.88;;;9.60;99.90;;;;;;5059418;28;20056;-58
2022/06/03 02:38:13;;;;;;;10.55;8.50;;;9.60;99.90;;;;;;5079190;28;20079;-59
2022/06/03 02:41:13;;;;;;;8.73;7.38;;;9.60;99.90;;;;;;5062117;28;20040;-58
2022/06/03 02:44:10;;;;;;;10.57;8.02;;;9.60;99.90;;;;;;5052873;28;20068;-60
2022/06/03 02:47:06;;;;;;;10.52;8.23;;;9.60;99.90;;;;;;5058144;28;20055;-59
2022/06/03 02:49:52;;;;;;;10.10;8.45;;;9.60;99.90;;;;;;5058213;28;20036;-59
2022/06/03 02:52:23;;;;;;;9.75;7.70;;;9.50;99.90;;;;;;5057024;28;20405;-59
2022/06/03 02:55:10;;;;;;;9.65;8.23;;;9.50;99.90;;;;;;5059692;28;20048;-59
2022/06/03 02:58:08;;;;;;;11.05;8.48;;;9.50;99.90;;;;;;5056549;28;20136;-59
2022/06/03 03:00:57;;;;;;;10.63;8.93;;;9.50;99.90;;;;;;5037178;28;20845;-59
2022/06/03 03:03:47;;;;;;;11.05;8.45;;;9.50;99.90;;;;;;5038179;28;20044;-59
2022/06/03 03:06:31;;;;;;;12.13;10.02;;;9.50;99.90;;;;;;5061740;28;20047;-58
2022/06/03 03:08:57;;;;;;;11.27;9.18;;;9.50;99.90;;;;;;5063880;28;20826;-58
2022/06/03 03:11:48;;;;;;;13.40;9.75;;;9.50;99.90;;;;;;5075224;28;20048;-58
2022/06/03 03:14:32;;;;;;;12.97;8.93;;;9.50;99.90;;;;;;5046485;28;20045;-60
2022/06/03 03:17:04;;;;;;;15.32;10.15;;;9.50;99.90;;;;;;5050961;28;20061;-58
2022/06/03 03:19:39;;;;;;;11.13;9.50;;;9.50;99.90;;;;;;5059802;28;20044;-58
2022/06/03 03:22:33;;;;;;;13.68;9.95;;;9.40;99.90;;;;;;5062722;28;20059;-58
2022/06/03 03:25:01;;;;;;;11.10;9.93;;;9.40;99.90;;;;;;5059915;28;20490;-59
2022/06/03 03:28:02;;;;;;;11.85;9.38;;;9.40;99.90;;;;;;5066352;28;20056;-58
2022/06/03 03:30:30;;;;;;;12.60;9.98;;;9.50;99.90;;;;;;5063650;28;20901;-59
2022/06/03 03:33:02;;;;;;;11.05;9.85;;;9.50;99.90;;;;;;5055454;28;20052;-59
2022/06/03 03:35:33;;;;;;;;;;;9.50;99.90;;;;;;5076435;28;20062;-59
2022/06/03 03:38:28;;;;;;;18.00;10.27;;;9.50;99.90;;;;;;5068442;28;19928;-59
2022/06/03 03:41:10;;;;;;;11.73;10.48;;;9.50;99.90;;;;;;5062846;28;20044;-59
2022/06/03 03:44:14;;;;;;;15.55;9.65;;;9.50;99.90;;;;;;5086245;28;20126;-59
2022/06/03 03:46:52;;;;;;;13.10;9.95;;;9.50;99.90;;;;;;5067366;28;20127;-62
2022/06/03 03:49:27;;;;;;;11.82;9.55;;;9.50;99.90;;;;;;5066338;28;20774;-58
2022/06/03 03:52:18;;;;;;;10.55;9.20;;;9.50;99.90;;;;;;5076427;28;20148;-58
2022/06/03 03:54:50;;;;;;;13.65;11.43;;;9.60;99.90;;;;;;5060189;28;20044;-58
2022/06/03 03:57:16;;;;;;;;;;;9.60;99.90;;;;;;5069485;28;20052;-59
2022/06/03 03:59:57;;;;;;;13.30;10.25;;;9.60;99.90;;;;;;5049095;28;19973;-58
2022/06/03 04:02:38;;;;;;;12.73;10.68;;;9.60;99.90;;;;;;5066654;28;20403;-59
2022/06/03 04:05:27;;;;;;;11.95;10.38;;;9.60;99.90;;;;;;5066372;28;20501;-59
2022/06/03 04:08:08;;;;;;;14.23;10.50;;;9.70;99.90;;;;;;5057181;28;20140;-58
2022/06/03 04:10:55;;;;;;;15.55;10.65;;;9.70;99.90;;;;;;5059525;28;20109;-58
2022/06/03 04:13:40;;;;;;;13.02;10.10;;;9.70;99.90;;;;;;5055595;28;20494;-59
2022/06/03 04:16:44;;;;;;;13.73;9.85;;;9.80;99.90;;;;;;5046329;28;20053;-58
2022/06/03 04:19:48;;;;;;;14.10;10.95;;;9.80;99.90;;;;;;5070572;28;20083;-58
2022/06/03 04:22:29;;;;;;;12.35;10.40;;;9.80;99.90;;;;;;5065123;28;20075;-58
2022/06/03 04:25:14;;;;;;;13.18;10.18;;;9.80;99.90;;;;;;5065515;28;20044;-58
2022/06/03 04:28:12;;;;;;;12.93;10.68;;;9.80;99.90;;;;;;5064677;28;20056;-58
2022/06/03 04:31:09;;;;;;;12.82;10.95;;;9.90;99.90;;;;;;5064083;28;20124;-58
2022/06/03 04:33:43;;;;;;;14.18;11.15;;;10.00;99.90;;;;;;5062872;28;20063;-58
2022/06/03 04:36:45;;;;;;;13.30;10.00;;;10.00;99.90;;;;;;5065021;28;20051;-58
2022/06/03 04:39:36;;;;;;;17.40;10.90;;;10.10;99.90;;;;;;5051961;28;20429;-58
2022/06/03 04:42:32;;;;;;;14.32;10.88;;;10.20;99.90;;;;;;5064133;28;20059;-58
2022/06/03 04:45:32;;;;;;;12.73;10.68;;;10.30;99.90;;;;;;5053093;28;20495;-59
2022/06/03 04:48:20;;;;;;;12.60;11.13;;;10.30;99.90;;;;;;5062680;28;20542;-59
2022/06/03 04:51:22;;;;;;;12.43;11.10;;;10.40;99.90;;;;;;5045720;28;20044;-58
2022/06/03 04:54:05;;;;;;;;;;;10.50;99.90;;;;;;5059216;28;20052;-58
2022/06/03 04:57:08;;;;;;;13.48;10.52;;;10.60;99.90;;;;;;5063763;28;19923;-57
2022/06/03 04:59:59;;;;;;;15.75;10.68;;;10.70;99.90;;;;;;5062969;28;20044;-57
2022/06/03 05:02:49;;;;;;;12.73;10.52;;;10.70;99.90;;;;;;5042570;28;20048;-57
2022/06/03 05:05:18;;;;;;;12.45;10.40;;;10.90;99.90;;;;;;5056304;28;20048;-57
2022/06/03 05:08:15;;;;;;;11.77;9.18;;;11.30;99.90;;;;;;5071315;28;20051;-57
2022/06/03 05:10:50;;;;;;;12.82;9.70;;;11.80;99.90;;;;;;5025660;28;20052;-58
2022/06/03 05:13:21;;;;;;;11.32;8.45;;;12.10;99.90;;;;;;5044209;28;20054;-57
2022/06/03 05:16:12;;;;;;;10.88;8.95;;;12.30;99.90;;;;;;5058719;28;20051;-58
2022/06/03 05:18:54;;;;;;;11.68;8.35;;;12.60;99.90;;;;;;5050664;28;20049;-57
2022/06/03 05:21:48;;;;;;;12.60;8.05;;;12.90;99.90;;;;;;5055053;28;20556;-58
2022/06/03 05:24:17;;;;;;;8.30;7.35;;;13.00;99.90;;;;;;5062449;28;20054;-57
2022/06/03 05:26:43;;;;;;;9.30;7.93;;;13.10;99.90;;;;;;5063077;28;20111;-57
2022/06/03 05:29:37;;;;;;;11.38;8.27;;;13.30;99.90;;;;;;5060763;28;20057;-58
2022/06/03 05:32:53;;;;;;;9.30;7.88;;;13.50;99.90;;;;;;5056918;28;20229;-58
2022/06/03 05:35:37;;;;;;;10.13;8.18;;;13.50;99.90;;;;;;4986722;28;20100;-58
2022/06/03 05:38:31;;;;;;;9.60;8.00;;;13.60;99.90;;;;;;5001069;28;20054;-58
2022/06/03 05:44:33;;;;;;;11.05;7.45;;;13.90;99.90;;;;;;5045448;28;20036;-58
2022/06/03 05:47:15;;;;;;;8.40;7.53;;;14.10;99.90;;;;;;5063785;28;20087;-58
2022/06/03 05:49:56;;;;;;;11.60;7.30;;;14.20;99.90;;;;;;5061010;28;20036;-58
2022/06/03 05:52:31;;;;;;;7.90;6.73;;;14.40;99.90;;;;;;5041832;28;20133;-58
2022/06/03 05:55:03;;;;;;;8.60;7.00;;;14.50;99.90;;;;;;5059546;28;20044;-58
2022/06/03 05:57:59;;;;;;;7.97;6.50;;;14.60;99.90;;;;;;5038369;28;20143;-61
2022/06/03 06:00:34;;;;;;;12.40;9.68;;;14.90;99.90;;;;;;5034505;28;20447;-59
2022/06/03 06:03:33;;;;;;;10.40;7.57;;;15.20;99.90;;;;;;5059667;28;20083;-59
2022/06/03 06:06:34;;;;;;;7.50;6.45;;;15.40;99.90;;;;;;5056851;28;20041;-58
2022/06/03 06:09:30;;;;;;;12.13;9.20;;;15.60;99.90;;;;;;5053424;28;20052;-58
2022/06/03 06:12:30;;;;;;;7.65;5.38;;;15.50;99.90;;;;;;5044140;28;20040;-58
2022/06/03 06:14:56;;;;;;;8.02;6.22;;;15.60;99.90;;;;;;5062771;28;20157;-58
2022/06/03 06:17:43;;;;;;;9.05;5.43;;;15.90;99.90;;;;;;5061109;28;20135;-57
2022/06/03 06:20:35;;;;;;;8.25;6.28;;;15.90;99.90;;;;;;5061836;28;20061;-58
2022/06/03 06:23:16;;;;;;;6.78;5.55;;;16.10;99.90;;;;;;5057938;28;20045;-58
2022/06/03 06:26:28;;;;;;;8.03;5.83;;;16.20;99.90;;;;;;5060330;28;20041;-58
2022/06/03 06:29:16;;;;;;;6.35;5.07;;;16.30;99.90;;;;;;5059909;28;20048;-58
2022/06/03 07:43:31;;;;;;;7.55;5.60;;;19.80;99.90;;;;;;5059849;28;20057;-58
2022/06/03 07:46:06;;;;;;;;;;;20.10;99.90;;;;;;5061265;28;20056;-57
2022/06/03 07:48:34;;;;;;;19.33;17.27;;;20.00;99.90;;;;;;5060368;28;19926;-55
2022/06/03 07:51:11;;;;;;;16.33;14.65;;;20.00;99.90;;;;;;5061120;28;20048;-58
2022/06/03 07:53:54;;;;;;;9.02;6.15;;;20.10;99.90;;;;;;5038803;28;20075;-58
2022/06/03 07:56:27;;;;;;;11.48;8.20;;;20.20;99.90;;;;;;5057799;28;20075;-58
2022/06/03 07:59:00;;;;;;;11.43;6.80;;;20.20;99.90;;;;;;5061051;28;20068;-57
2022/06/03 08:01:38;;;;;;;13.68;12.20;;;20.40;99.90;;;;;;5061566;28;20056;-57
2022/06/03 08:04:05;;;;;;;11.98;8.40;;;20.50;99.90;;;;;;5055491;28;20745;-57
2022/06/03 08:12:11;;;;;;;7.10;4.50;;;21.10;99.90;;;;;;5069092;28;20730;-53
2022/06/03 08:14:38;;;;;;;5.28;4.00;;;21.40;99.90;;;;;;5025499;28;20142;-57
2022/06/03 08:17:07;;;;;;;10.38;8.05;;;21.70;99.90;;;;;;5059274;28;20048;-54
2022/06/03 08:19:37;;;;;;;7.50;4.10;;;21.50;99.90;;;;;;5062923;28;20056;-57
2022/06/03 08:22:08;;;;;;;8.35;4.97;;;21.60;99.90;;;;;;5044771;28;20138;-54
2022/06/03 08:24:38;;;;;;;7.75;5.72;;;21.70;99.80;;;;;;5058979;28;20542;-55
2022/06/03 08:27:10;;;;;;;5.82;4.32;;;21.60;99.90;;;;;;5060938;28;20047;-57
2022/06/03 08:29:39;;;;;;;5.95;4.20;;;21.90;97.10;;;;;;5058552;28;20137;-52
2022/06/03 08:32:11;;;;;;;5.65;3.60;;;21.90;99.90;;;;;;5062670;28;20045;-57
2022/06/03 08:34:44;;;;;;;6.60;3.85;;;22.10;99.10;;;;;;5062683;28;20911;-52
2022/06/03 08:37:15;;;;;;;8.70;4.38;;;22.10;95.90;;;;;;5057026;28;21431;-53
2022/06/03 08:39:44;;;;;;;5.15;3.47;;;22.00;95.60;;;;;;5060306;28;20074;-54
2022/06/03 08:42:37;;;;;;;5.90;3.00;;;22.00;98.40;;;;;;5060788;28;20060;-55
2022/06/03 08:45:25;;;;;;;6.50;4.13;;;22.50;93.00;;;;;;5061710;28;20170;-51
2022/06/03 08:47:55;;;;;;;5.50;3.80;;;22.30;97.10;;;;;;5061300;28;20193;-54
2022/06/03 08:51:01;;;;;;;6.93;3.92;;;22.00;97.30;;;;;;5057519;28;20053;-51
2022/06/03 08:53:30;;;;;;;5.85;3.78;;;22.20;93.80;;;;;;5057324;28;20083;-56
2022/06/03 08:56:01;;;;;;;4.75;2.90;;;22.20;98.30;;;;;;5057875;28;20054;-57
2022/06/03 08:58:50;;;;;;;7.63;3.10;;;22.30;94.80;;;;;;5056810;28;20049;-55
2022/06/03 09:01:25;;;;;;;6.18;3.35;;;22.40;84.80;;;;;;5052650;28;20052;-55
2022/06/03 09:04:11;;;;;;;5.43;2.40;;;22.50;84.50;;;;;;5072799;28;20830;-55
2022/06/03 09:06:53;;;;;;;3.30;2.40;;;22.70;81.90;;;;;;5055573;28;20450;-55
2022/06/03 09:09:45;;;;;;;7.22;3.60;;;22.90;81.10;;;;;;5057028;28;20067;-54
2022/06/03 09:12:29;;;;;;;43.10;38.97;;;22.90;90.90;;;;;;5049963;28;20044;-57
2022/06/03 09:15:01;;;;;;;7.43;5.35;;;22.80;79.00;;;;;;5052975;28;20041;-51
2022/06/03 09:17:56;;;;;;;5.70;4.25;;;23.00;90.50;;;;;;5057111;28;20049;-54
2022/06/03 09:20:25;;;;;;;34.63;31.25;;;23.10;72.90;;;;;;5070706;28;20579;-55
2022/06/03 09:22:58;;;;;;;5.28;3.70;;;23.40;80.90;;;;;;5059671;28;20059;-55
2022/06/03 09:25:25;;;;;;;5.82;4.75;;;23.40;65.30;;;;;;5062173;28;20072;-53
2022/06/03 09:27:51;;;;;;;67.72;61.28;;;23.40;69.90;;;;;;5061211;28;20048;-54
2022/06/03 09:30:27;;;;;;;58.10;52.78;;;23.30;66.10;;;;;;5037862;28;20047;-56
2022/06/03 09:32:56;;;;;;;16.67;14.98;;;23.40;66.70;;;;;;5055540;28;20063;-55
2022/06/03 09:35:25;;;;;;;12.40;10.95;;;23.60;64.00;;;;;;5057627;28;20048;-58
2022/06/03 09:37:54;;;;;;;11.95;10.73;;;23.70;67.00;;;;;;5057458;28;20084;-58
2022/06/03 09:40:25;;;;;;;13.88;5.80;;;23.80;60.70;;;;;;5059917;28;20049;-58
2022/06/03 09:43:13;;;;;;;12.40;5.20;;;23.90;58.90;;;;;;5058278;28;20071;-58
2022/06/03 09:45:40;;;;;;;11.50;5.38;;;24.00;54.40;;;;;;5049383;28;20356;-52
2022/06/03 09:48:09;;;;;;;8.90;2.90;;;23.80;51.30;;;;;;5063204;28;20052;-53
2022/06/03 09:50:36;;;;;;;3.75;2.10;;;23.60;52.30;;;;;;5059118;28;20671;-56
2022/06/03 09:53:06;;;;;;;5.03;2.55;;;23.60;54.40;;;;;;5048467;28;20048;-57
2022/06/03 09:55:38;;;;;;;3.17;1.92;;;23.60;58.60;;;;;;5058081;28;22196;-54
2022/06/03 09:58:08;;;;;;;3.20;2.00;;;24.00;56.70;;;;;;5043402;28;20568;-52
2022/06/03 10:00:41;;;;;;;99.55;20.35;;;23.80;55.30;;;;;;5059304;28;20069;-53
2022/06/03 10:03:07;;;;;;;3.63;2.10;;;23.90;56.60;;;;;;5043834;28;20068;-49
2022/06/03 10:05:33;;;;;;;5.00;2.10;;;23.80;55.10;;;;;;5058809;28;20151;-53
2022/06/03 10:08:05;;;;;;;4.60;2.45;;;24.20;54.70;;;;;;5055148;28;20048;-52
2022/06/03 10:13:19;;;;;;;5.10;2.25;;;24.50;67.40;;;;;;5061768;28;20415;-55
2022/06/03 10:15:56;;;;;;;3.25;1.90;;;25.00;58.40;;;;;;5061977;28;21050;-54
2022/06/03 10:18:37;;;;;;;3.05;2.05;;;25.50;53.50;;;;;;5059088;28;20045;-55
2022/06/03 10:21:06;;;;;;;3.35;2.15;;;25.20;47.80;;;;;;5052780;28;20487;-54
2022/06/03 10:23:43;;;;;;;4.40;1.90;;;25.10;48.60;;;;;;5054252;28;20515;-55
2022/06/03 10:26:22;;;;;;;1.90;1.63;;;25.50;50.40;;;;;;5057759;28;20310;-55
2022/06/03 10:28:51;;;;;;;3.92;2.55;;;25.80;49.70;;;;;;5042561;28;20051;-53
2022/06/03 10:31:20;;;;;;;3.10;1.42;;;25.80;49.30;;;;;;5058231;28;20057;-55
2022/06/03 10:33:54;;;;;;;2.97;1.77;;;26.20;49.60;;;;;;5040320;28;20139;-56
2022/06/03 10:36:31;;;;;;;4.22;2.40;;;26.10;47.50;;;;;;5057857;28;20122;-54
2022/06/03 10:38:58;;;;;;;5.05;2.50;;;26.10;46.40;;;;;;5076197;28;20152;-52
2022/06/03 10:41:45;;;;;;;4.78;2.10;;;26.00;47.20;;;;;;5058159;28;20522;-58
2022/06/03 10:44:33;;;;;;;14.30;12.90;;;26.40;49.00;;;;;;5072054;28;20052;-55
2022/06/03 10:47:28;;;;;;;16.60;14.93;;;26.70;47.60;;;;;;5058498;28;20564;-57
2022/06/03 10:49:55;;;;;;;17.13;15.48;;;26.80;47.90;;;;;;5051363;28;20091;-53
2022/06/03 11:01:28;;;;;;;5.22;3.83;;;26.60;47.00;;;;;;5070073;28;20045;-51
2022/06/03 11:03:54;;;;;;;3.90;2.15;;;26.80;47.20;;;;;;5045004;28;20048;-47
2022/06/03 11:06:23;;;;;;;6.60;2.50;;;26.90;46.50;;;;;;5060558;28;20048;-48
2022/06/03 11:08:59;;;;;;;25.10;5.70;;;27.00;45.30;;;;;;5044252;28;20048;-56
2022/06/03 11:11:43;;;;;;;15.60;4.00;;;26.90;44.70;;;;;;5058334;28;20568;-54
2022/06/03 11:14:29;;;;;;;5.32;2.38;;;26.90;45.00;;;;;;5061937;28;20063;-56
2022/06/03 11:17:15;;;;;;;4.90;2.05;;;26.80;44.80;;;;;;5058142;28;20076;-56
2022/06/03 11:19:52;;;;;;;4.43;1.55;;;26.80;43.90;;;;;;5079223;28;20808;-56
2022/06/03 11:22:20;;;;;;;4.47;2.17;;;27.20;44.30;;;;;;5060197;28;20147;-56
2022/06/03 11:25:08;;;;;;;4.05;1.65;;;26.60;44.10;;;;;;5059374;28;20119;-54
2022/06/03 11:27:46;;;;;;;10.25;9.07;;;27.00;45.20;;;;;;5058852;28;20048;-59
2022/06/03 11:30:24;;;;;;;10.68;9.57;;;26.70;45.70;;;;;;5057773;28;20098;-58
2022/06/03 11:32:55;;;;;;;7.65;5.60;;;26.70;45.40;;;;;;5071980;28;20048;-57
2022/06/03 11:35:29;;;;;;;;;;;26.80;44.20;;;;;;5062939;28;20059;-58
2022/06/03 11:38:03;;;;;;;3.22;2.67;;;26.80;46.40;;;;;;5059142;28;19924;-58
2022/06/03 11:40:40;;;;;;;4.35;3.33;;;26.80;46.00;;;;;;5058410;28;20048;-58
2022/06/03 11:43:19;;;;;;;3.70;2.10;;;26.90;43.50;;;;;;5059374;28;20044;-56
2022/06/03 11:46:20;;;;;;;4.20;1.50;;;26.80;43.00;;;;;;5058905;28;20828;-58
2022/06/03 11:48:49;;;;;;;3.70;2.55;;;26.80;43.90;;;;;;5041377;28;20166;-58
2022/06/03 11:51:16;;;;;;;4.63;2.15;;;26.20;44.10;;;;;;5057213;28;20044;-58
2022/06/03 11:53:48;;;;;;;3.83;2.33;;;26.40;44.00;;;;;;5060988;28;20124;-58
2022/06/03 11:56:18;;;;;;;3.45;2.17;;;26.40;43.50;;;;;;5063125;28;20118;-58
2022/06/03 11:58:57;;;;;;;4.18;2.35;;;26.40;44.00;;;;;;5064835;28;20191;-58
2022/06/03 12:01:59;;;;;;;5.28;2.42;;;26.60;43.60;;;;;;5061142;28;20115;-52
2022/06/03 12:04:56;;;;;;;5.60;2.88;;;26.90;44.30;;;;;;5048403;28;20040;-52
2022/06/03 12:07:37;;;;;;;4.88;1.77;;;27.00;42.70;;;;;;5061586;28;20655;-52
2022/06/03 12:10:10;;;;;;;;;;;27.10;42.40;;;;;;5063132;28;20243;-52
2022/06/03 12:15:31;;;;;;;3.30;2.15;;;26.50;43.10;;;;;;5062582;28;20506;-48
2022/06/03 12:18:07;;;;;;;3.45;1.73;;;26.50;43.10;;;;;;5027275;28;20527;-58
2022/06/03 12:20:43;;;;;;;4.32;2.03;;;26.90;42.20;;;;;;5064288;28;20083;-51
2022/06/03 12:23:12;;;;;;;3.10;1.67;;;26.90;42.70;;;;;;5063306;28;20048;-53
2022/06/03 12:25:57;;;;;;;4.78;2.00;;;27.30;42.20;;;;;;5045329;28;20040;-53
2022/06/03 12:28:29;;;;;;;4.45;2.05;;;27.40;42.60;;;;;;5065080;28;20072;-51
2022/06/03 12:30:57;;;;;;;4.72;2.25;;;27.80;42.10;;;;;;5063760;28;20052;-52
2022/06/03 12:33:51;;;;;;;4.10;2.35;;;27.90;42.20;;;;;;5064518;28;20057;-50
2022/06/03 12:36:47;;;;;;;4.90;1.85;;;28.20;42.80;;;;;;5059210;28;20127;-58
2022/06/03 12:39:54;;;;;;;3.97;1.95;;;27.90;43.20;;;;;;5061188;28;20044;-50
2022/06/03 12:42:37;;;;;;;5.55;2.50;;;28.10;41.50;;;;;;5060760;28;20110;-57
2022/06/03 12:45:03;;;;;;;2.33;1.63;;;27.90;40.10;;;;;;5063078;28;20049;-50
2022/06/03 12:47:42;;;;;;;3.67;1.67;;;28.00;40.00;;;;;;5063243;28;20051;-50
2022/06/03 12:50:08;;;;;;;5.00;2.20;;;27.80;41.00;;;;;;5061611;28;20466;-50
2022/06/03 12:52:37;;;;;;;3.53;2.05;;;27.90;41.10;;;;;;5060056;28;20072;-47
2022/06/03 12:55:14;;;;;;;4.57;1.73;;;28.00;40.70;;;;;;5064169;28;20197;-57
2022/06/03 12:57:55;;;;;;;3.05;1.60;;;28.20;40.70;;;;;;5063904;28;20407;-57
2022/06/03 13:00:21;;;;;;;;;;;28.30;40.20;;;;;;5061168;28;20032;-57
2022/06/03 13:02:52;;;;;;;3.38;1.90;;;28.30;40.50;;;;;;5064627;28;19936;-52
2022/06/03 13:05:42;;;;;;;3.45;2.10;;;28.50;40.90;;;;;;5060333;28;20041;-50
2022/06/03 13:08:31;;;;;;;3.50;1.63;;;28.20;39.00;;;;;;5061043;28;20819;-51
2022/06/03 13:11:07;;;;;;;2.63;1.50;;;28.10;40.40;;;;;;5062311;28;20717;-50
2022/06/03 13:13:33;;;;;;;4.57;1.90;;;28.40;40.90;;;;;;5061289;28;20047;-50
2022/06/03 13:16:22;;;;;;;3.40;1.60;;;28.80;40.80;;;;;;5060495;28;20044;-51
2022/06/03 13:18:57;;;;;;;5.80;3.97;;;28.90;39.70;;;;;;5061882;28;20049;-53
2022/06/03 13:21:25;;;;;;;18.85;17.00;;;28.90;40.10;;;;;;5058529;28;20093;-53
2022/06/03 13:23:51;;;;;;;17.45;15.85;;;28.90;40.70;;;;;;5062966;28;20045;-50
2022/06/03 13:26:23;;;;;;;8.70;7.43;;;29.20;40.50;;;;;;5040962;28;20571;-50
2022/06/03 13:28:53;;;;;;;9.45;8.48;;;29.50;40.60;;;;;;5038031;28;20055;-51
2022/06/03 13:31:30;;;;;;;5.17;3.17;;;29.40;40.10;;;;;;5061177;28;20114;-52
2022/06/03 13:34:08;;;;;;;3.53;1.67;;;29.60;38.20;;;;;;5057232;28;20305;-53
2022/06/03 13:36:41;;;;;;;5.82;4.72;;;29.40;39.10;;;;;;5044064;28;20052;-51
2022/06/03 13:39:13;;;;;;;6.47;5.32;;;29.50;39.40;;;;;;5058256;28;20155;-49
2022/06/03 13:44:46;;;;;;;5.88;5.15;;;29.30;38.80;;;;;;5042563;28;20044;-52
2022/06/03 13:47:26;;;;;;;3.60;2.17;;;29.30;39.00;;;;;;5069886;28;20074;-52
2022/06/03 13:50:03;;;;;;;3.35;1.50;;;29.20;38.50;;;;;;5060620;28;20040;-56
2022/06/03 13:52:58;;;;;;;3.63;2.47;;;29.90;38.30;;;;;;5060849;28;20051;-56
2022/06/03 13:55:42;;;;;;;3.15;1.60;;;29.50;38.10;;;;;;5057470;28;20087;-56
2022/06/03 13:58:22;;;;;;;4.22;2.70;;;29.80;38.10;;;;;;5059769;28;20099;-57
2022/06/03 14:00:51;;;;;;;5.57;3.30;;;29.50;37.80;;;;;;5060059;28;20048;-57
2022/06/03 14:03:28;;;;;;;3.90;2.75;;;29.50;37.70;;;;;;5059589;28;20049;-57
2022/06/03 14:06:01;;;;;;;5.00;2.63;;;29.70;38.00;;;;;;5060975;28;20117;-56
2022/06/03 14:08:31;;;;;;;4.10;1.88;;;29.70;39.60;;;;;;5058805;28;20044;-56
2022/06/03 14:11:26;;;;;;;4.80;2.85;;;29.90;39.50;;;;;;5042097;28;20102;-56
2022/06/03 14:13:58;;;;;;;2.85;1.50;;;30.00;38.80;;;;;;5058797;28;20058;-56
2022/06/03 14:16:45;;;;;;;2.78;1.60;;;30.40;38.30;;;;;;5061306;28;22079;-54
2022/06/03 14:19:11;;;;;;;3.17;1.60;;;29.80;37.60;;;;;;5059858;28;20577;-53
2022/06/03 14:21:49;;;;;;;7.30;5.38;;;29.90;38.00;;;;;;5060684;28;20048;-56
2022/06/03 14:24:30;;;;;;;8.18;4.38;;;29.90;38.30;;;;;;5060174;28;20052;-54
2022/06/03 14:27:19;;;;;;;7.28;4.35;;;29.90;38.40;;;;;;5057966;28;20083;-55
2022/06/03 14:29:54;;;;;;;8.07;5.05;;;29.50;39.00;;;;;;5059814;28;20055;-46
2022/06/03 14:32:24;;;;;;;5.57;3.60;;;29.00;38.50;;;;;;5060512;28;20115;-46
2022/06/03 14:34:52;;;;;;;6.47;5.03;;;28.80;39.10;;;;;;5061593;28;20105;-48
2022/06/03 14:37:35;;;;;;;3.05;1.88;;;28.80;38.70;;;;;;5057951;28;20072;-47
2022/06/03 14:40:08;;;;;;;3.70;2.60;;;28.30;39.80;;;;;;5058987;28;20036;-45
2022/06/03 14:42:38;;;;;;;5.47;3.83;;;27.60;39.90;;;;;;5055257;28;20062;-49
2022/06/03 14:45:09;;;;;;;2.90;1.85;;;28.10;40.20;;;;;;5058893;28;20075;-45
2022/06/03 14:47:40;;;;;;;3.72;1.63;;;28.40;40.30;;;;;;5058592;28;20049;-50
2022/06/03 14:50:21;;;;;;;3.65;2.45;;;28.00;40.10;;;;;;5057980;28;20049;-49
2022/06/03 14:52:57;;;;;;;4.70;2.88;;;27.80;41.20;;;;;;5059881;28;20076;-52
2022/06/03 14:55:31;;;;;;;28.17;24.30;;;27.70;41.70;;;;;;5060888;28;20102;-54
2022/06/03 14:58:02;;;;;;;9.25;8.18;;;27.50;43.00;;;;;;5061617;28;20102;-54
2022/06/03 15:00:40;;;;;;;9.05;6.65;;;27.20;42.20;;;;;;5060723;28;20067;-53
2022/06/03 15:03:31;;;;;;;4.30;2.65;;;27.10;42.80;;;;;;5056593;28;20099;-53
2022/06/03 15:06:00;;;;;;;12.25;11.00;;;27.10;43.90;;;;;;5056160;28;20064;-52
2022/06/03 15:08:48;;;;;;;17.08;15.48;;;26.80;42.80;;;;;;5058850;28;20056;-57
2022/06/03 15:11:39;;;;;;;7.13;2.50;;;26.80;43.50;;;;;;5059278;28;20048;-49
2022/06/03 15:14:10;;;;;;;3.10;1.50;;;26.40;43.50;;;;;;5055121;28;20048;-53
2022/06/03 15:17:01;;;;;;;5.00;1.95;;;26.20;44.20;;;;;;5026099;28;20051;-53
2022/06/03 15:19:49;;;;;;;7.78;2.78;;;26.20;43.10;;;;;;5075699;28;20913;-55
2022/06/03 15:22:15;;;;;;;4.43;2.85;;;25.90;44.00;;;;;;5060103;28;20055;-54
2022/06/03 15:25:09;;;;;;;3.92;1.75;;;25.90;43.90;;;;;;5056992;28;20048;-51
2022/06/03 15:27:44;;;;;;;4.90;4.38;;;25.60;44.90;;;;;;5046674;28;20708;-57
2022/06/03 15:30:40;;;;;;;2.75;1.70;;;25.60;45.90;;;;;;5059422;28;20054;-50
2022/06/03 15:33:16;;;;;;;6.20;4.05;;;25.50;45.80;;;;;;5058776;28;20045;-51
2022/06/03 15:35:43;;;;;;;37.30;33.75;;;25.30;45.30;;;;;;5051661;28;20063;-51